createdAt,value
2023-05-16T00:01:23.727Z,5.07
2023-05-16T00:03:51.766Z,4.63
2023-05-16T00:06:19.090Z,4.85
2023-05-16T00:08:46.261Z,4.57
2023-05-16T00:11:13.661Z,4.13
2023-05-16T00:13:43.391Z,5.00
2023-05-16T00:16:12.169Z,5.68
2023-05-16T00:18:39.542Z,4.50
2023-05-16T00:21:07.661Z,5.55
2023-05-16T00:23:35.339Z,5.15
2023-05-16T00:26:02.589Z,5.63
2023-05-16T00:28:30.778Z,5.68
2023-05-16T00:30:57.828Z,5.97
2023-05-16T00:33:24.873Z,6.18
2023-05-16T00:35:54.184Z,7.07
2023-05-16T00:38:21.575Z,6.75
2023-05-16T00:40:48.705Z,5.53
2023-05-16T00:43:15.852Z,5.75
2023-05-16T00:45:43.441Z,6.43
2023-05-16T00:48:13.319Z,6.32
2023-05-16T00:50:41.092Z,6.45
2023-05-16T00:53:08.254Z,7.65
2023-05-16T00:55:35.660Z,6.90
2023-05-16T00:58:02.951Z,6.75
2023-05-16T01:00:30.215Z,8.27
2023-05-16T01:02:57.881Z,6.88
2023-05-16T01:05:25.941Z,7.28
2023-05-16T01:07:53.450Z,6.20
2023-05-16T01:10:21.445Z,7.30
2023-05-16T01:13:20.871Z,7.53
2023-05-16T01:16:11.673Z,6.78
2023-05-16T01:19:00.566Z,7.25
2023-05-16T01:21:53.927Z,7.60
2023-05-16T01:24:35.077Z,8.13
2023-05-16T01:27:05.512Z,8.50
2023-05-16T01:29:33.101Z,8.55
2023-05-16T01:32:00.516Z,8.10
2023-05-16T01:34:27.900Z,8.75
2023-05-16T01:37:06.452Z,8.18
2023-05-16T01:39:48.248Z,8.52
2023-05-16T01:42:17.494Z,8.15
2023-05-16T01:44:57.580Z,8.68
2023-05-16T01:47:27.596Z,7.97
2023-05-16T01:50:05.970Z,8.30
2023-05-16T01:52:42.406Z,8.88
2023-05-16T01:55:28.918Z,8.52
2023-05-16T01:57:57.333Z,8.38
2023-05-16T02:00:24.490Z,9.43
2023-05-16T02:02:51.761Z,9.15
2023-05-16T02:05:18.628Z,10.57
2023-05-16T02:07:46.743Z,10.73
2023-05-16T02:10:14.307Z,10.85
2023-05-16T02:12:41.463Z,10.98
2023-05-16T02:15:10.356Z,11.45
2023-05-16T02:17:37.715Z,10.55
2023-05-16T02:20:07.539Z,10.70
2023-05-16T02:22:34.875Z,10.23
2023-05-16T02:25:03.924Z,9.77
2023-05-16T02:27:31.335Z,9.20
2023-05-16T02:29:58.995Z,9.88
2023-05-16T02:32:26.822Z,10.40
2023-05-16T02:34:54.151Z,9.95
2023-05-16T02:37:21.384Z,11.25
2023-05-16T02:39:48.631Z,10.27
2023-05-16T02:42:15.917Z,11.25
2023-05-16T02:44:43.464Z,10.82
2023-05-16T02:47:22.270Z,11.25
2023-05-16T02:49:49.004Z,11.32
2023-05-16T02:52:15.778Z,11.65
2023-05-16T02:54:42.435Z,11.90
2023-05-16T02:57:09.069Z,11.63
2023-05-16T02:59:36.479Z,12.07
2023-05-16T03:02:04.047Z,13.10
2023-05-16T03:04:30.917Z,13.30
2023-05-16T03:06:57.751Z,11.88
2023-05-16T03:09:24.407Z,12.63
2023-05-16T03:11:51.125Z,12.57
2023-05-16T03:14:17.780Z,12.38
2023-05-16T03:16:44.675Z,13.98
2023-05-16T03:19:11.485Z,12.77
2023-05-16T03:21:38.216Z,12.63
2023-05-16T03:24:05.230Z,13.82
2023-05-16T03:26:31.975Z,14.32
2023-05-16T03:28:59.381Z,13.85
2023-05-16T03:31:26.118Z,13.90
2023-05-16T03:33:52.863Z,15.18
2023-05-16T03:36:22.260Z,14.35
2023-05-16T03:38:48.977Z,14.60
2023-05-16T03:41:15.610Z,14.15
2023-05-16T03:43:42.474Z,13.38
2023-05-16T03:46:09.176Z,14.30
2023-05-16T03:48:35.843Z,14.63
2023-05-16T03:51:02.469Z,14.35
2023-05-16T03:53:29.155Z,16.02
2023-05-16T03:55:55.787Z,15.32
2023-05-16T03:58:22.455Z,14.85
2023-05-16T04:00:49.091Z,15.85
2023-05-16T04:03:16.454Z,16.27
2023-05-16T04:05:43.471Z,16.17
2023-05-16T04:08:10.178Z,17.13
2023-05-16T04:10:36.812Z,17.33
2023-05-16T04:13:03.425Z,17.80
2023-05-16T04:15:30.098Z,17.95
2023-05-16T04:17:56.926Z,18.35
2023-05-16T04:20:23.671Z,18.58
2023-05-16T04:22:50.344Z,18.63
2023-05-16T04:25:17.335Z,18.92
2023-05-16T04:27:44.130Z,19.52
2023-05-16T04:30:12.104Z,20.42
2023-05-16T04:32:38.757Z,18.95
2023-05-16T04:35:05.829Z,18.85
2023-05-16T04:37:32.500Z,24.65
2023-05-16T04:39:59.345Z,21.35
2023-05-16T04:42:26.178Z,20.13
2023-05-16T04:44:52.926Z,20.85
2023-05-16T04:47:19.675Z,21.77
2023-05-16T04:49:46.298Z,25.63
2023-05-16T04:52:13.286Z,26.05
2023-05-16T04:54:40.094Z,27.98
2023-05-16T04:57:06.955Z,25.92
2023-05-16T04:59:33.639Z,26.30
2023-05-16T05:02:00.434Z,18.60
2023-05-16T05:04:27.312Z,16.60
2023-05-16T05:06:54.448Z,17.00
2023-05-16T05:09:21.100Z,14.82
2023-05-16T05:11:47.810Z,11.73
2023-05-16T05:14:14.490Z,11.88
2023-05-16T05:16:41.170Z,9.80
2023-05-16T05:19:09.213Z,8.90
2023-05-16T05:21:36.169Z,8.38
2023-05-16T05:24:02.762Z,7.72
2023-05-16T05:26:29.522Z,8.02
2023-05-16T05:29:04.418Z,7.13
2023-05-16T05:31:33.992Z,7.45
2023-05-16T05:34:01.270Z,6.38
2023-05-16T05:36:28.031Z,6.45
2023-05-16T05:38:54.750Z,7.25
2023-05-16T05:41:22.540Z,6.90
2023-05-16T05:43:49.639Z,6.40
2023-05-16T05:46:17.446Z,6.53
2023-05-16T05:48:44.451Z,6.47
2023-05-16T05:51:11.338Z,6.65
2023-05-16T05:53:37.959Z,6.53
2023-05-16T05:56:04.819Z,6.00
2023-05-16T05:58:31.454Z,6.03
2023-05-16T06:00:58.121Z,5.65
2023-05-16T06:03:24.763Z,6.47
2023-05-16T06:05:52.338Z,7.30
2023-05-16T06:08:19.004Z,6.15
2023-05-16T06:10:45.666Z,6.38
2023-05-16T06:13:12.504Z,6.32
2023-05-16T06:15:39.163Z,6.65
2023-05-16T06:18:06.029Z,6.65
2023-05-16T06:20:32.794Z,6.10
2023-05-16T06:22:59.434Z,6.15
2023-05-16T06:25:26.424Z,6.97
2023-05-16T06:27:53.213Z,5.75
2023-05-16T06:30:19.836Z,5.93
2023-05-16T06:32:46.685Z,5.90
2023-05-16T06:35:13.316Z,5.28
2023-05-16T06:37:42.104Z,6.50
2023-05-16T06:40:10.050Z,6.47
2023-05-16T06:42:36.711Z,6.13
2023-05-16T06:45:03.818Z,5.13
2023-05-16T06:47:30.652Z,12.27
2023-05-16T06:49:57.356Z,6.60
2023-05-16T06:52:24.211Z,6.00
2023-05-16T06:54:50.925Z,5.80
2023-05-16T06:57:17.566Z,5.43
2023-05-16T06:59:44.716Z,6.00
2023-05-16T07:02:11.585Z,6.45
2023-05-16T07:04:38.358Z,9.60
2023-05-16T07:07:07.852Z,5.70
2023-05-16T07:09:34.558Z,5.90
2023-05-16T07:12:01.310Z,5.05
2023-05-16T07:14:28.259Z,4.82
2023-05-16T07:16:54.960Z,4.95
2023-05-16T07:19:21.770Z,5.50
2023-05-16T07:21:48.528Z,4.97
2023-05-16T07:24:15.215Z,5.40
2023-05-16T07:26:41.851Z,4.43
2023-05-16T07:29:08.574Z,4.47
2023-05-16T07:31:35.284Z,4.57
2023-05-16T07:34:01.978Z,4.15
2023-05-16T07:36:28.728Z,4.70
2023-05-16T07:38:55.492Z,4.82
2023-05-16T07:41:22.549Z,4.20
2023-05-16T07:43:49.274Z,4.70
2023-05-16T07:46:16.096Z,4.80
2023-05-16T07:48:42.972Z,4.50
2023-05-16T07:51:09.649Z,4.35
2023-05-16T07:53:36.698Z,5.00
2023-05-16T07:56:03.946Z,4.82
2023-05-16T07:58:30.958Z,4.47
2023-05-16T08:00:57.760Z,5.07
2023-05-16T08:03:24.885Z,12.10
2023-05-16T08:05:52.196Z,4.57
2023-05-16T08:08:19.271Z,4.65
2023-05-16T08:10:46.005Z,4.60
2023-05-16T08:13:12.776Z,4.63
2023-05-16T08:15:39.563Z,4.40
2023-05-16T08:18:14.584Z,4.13
2023-05-16T08:20:42.459Z,4.82
2023-05-16T08:23:09.672Z,5.30
2023-05-16T08:25:36.458Z,4.80
2023-05-16T08:28:03.236Z,4.15
2023-05-16T08:30:29.992Z,3.95
2023-05-16T08:32:56.709Z,3.65
2023-05-16T08:35:23.409Z,3.75
2023-05-16T08:37:50.597Z,3.60
2023-05-16T08:40:19.520Z,3.80
2023-05-16T08:42:46.318Z,4.05
2023-05-16T08:45:13.326Z,3.45
2023-05-16T08:47:41.699Z,4.32
2023-05-16T08:50:10.758Z,3.67
2023-05-16T08:52:40.287Z,3.83
2023-05-16T08:55:25.183Z,4.32
2023-05-16T08:57:54.929Z,3.60
2023-05-16T09:00:22.831Z,4.25
2023-05-16T09:02:50.282Z,4.28
2023-05-16T09:05:18.154Z,4.10
2023-05-16T09:07:46.336Z,17.35
2023-05-16T09:10:13.718Z,5.10
2023-05-16T09:12:42.311Z,4.00
2023-05-16T09:15:11.074Z,4.18
2023-05-16T09:17:42.775Z,4.30
2023-05-16T09:20:14.195Z,4.07
2023-05-16T09:22:49.800Z,4.05
2023-05-16T09:25:29.157Z,4.50
2023-05-16T09:27:58.557Z,3.90
2023-05-16T09:30:30.452Z,3.88
2023-05-16T09:32:57.351Z,3.97
2023-05-16T09:35:39.810Z,3.67
2023-05-16T09:38:17.948Z,4.03
2023-05-16T09:40:46.170Z,3.83
2023-05-16T09:43:17.286Z,3.80
2023-05-16T09:45:49.070Z,3.42
2023-05-16T09:48:19.536Z,3.90
2023-05-16T09:50:54.589Z,3.92
2023-05-16T09:53:28.658Z,3.53
2023-05-16T09:56:08.071Z,4.18
2023-05-16T09:58:36.682Z,4.00
2023-05-16T10:01:04.364Z,3.97
2023-05-16T10:03:31.634Z,3.70
2023-05-16T10:06:00.180Z,3.58
2023-05-16T10:08:27.144Z,4.60
2023-05-16T10:10:57.533Z,3.33
2023-05-16T10:13:29.455Z,4.00
2023-05-16T10:15:57.541Z,3.55
2023-05-16T10:18:30.462Z,3.47
2023-05-16T10:21:02.532Z,3.60
2023-05-16T10:23:32.786Z,3.65
2023-05-16T10:26:06.359Z,4.03
2023-05-16T10:28:35.910Z,3.30
2023-05-16T10:31:03.318Z,3.80
2023-05-16T10:33:30.373Z,3.72
2023-05-16T10:35:57.429Z,4.05
2023-05-16T10:38:24.929Z,3.40
2023-05-16T10:40:52.110Z,6.05
2023-05-16T10:43:27.125Z,3.60
2023-05-16T10:45:58.365Z,3.78
2023-05-16T10:48:36.349Z,4.07
2023-05-16T10:51:04.765Z,3.50
2023-05-16T10:53:36.151Z,3.00
2023-05-16T10:56:03.443Z,3.03
2023-05-16T10:58:39.206Z,2.85
2023-05-16T11:01:30.314Z,3.00
2023-05-16T11:03:57.174Z,3.00
2023-05-16T11:06:25.181Z,3.83
2023-05-16T11:09:05.964Z,2.70
2023-05-16T11:11:52.746Z,3.03
2023-05-16T11:14:29.199Z,3.60
2023-05-16T11:17:23.549Z,3.13
2023-05-16T11:19:59.687Z,3.10
2023-05-16T11:22:27.367Z,3.17
2023-05-16T11:24:57.452Z,3.13
2023-05-16T11:27:27.152Z,3.08
2023-05-16T11:29:56.536Z,2.80
2023-05-16T11:32:23.777Z,2.80
2023-05-16T11:34:52.202Z,2.70
2023-05-16T11:37:20.366Z,2.83
2023-05-16T11:39:47.628Z,3.28
2023-05-16T11:42:14.707Z,3.03
2023-05-16T11:44:41.540Z,2.30
2023-05-16T11:47:08.863Z,2.75
2023-05-16T11:49:36.116Z,2.42
2023-05-16T11:52:05.486Z,2.15
2023-05-16T11:54:32.615Z,2.45
2023-05-16T11:56:59.922Z,2.35
2023-05-16T11:59:27.260Z,2.22
2023-05-16T12:01:54.110Z,2.20
2023-05-16T12:04:21.209Z,3.33
2023-05-16T12:06:59.792Z,2.35
2023-05-16T12:09:26.702Z,2.72
2023-05-16T12:11:53.617Z,2.60
2023-05-16T12:14:20.715Z,1.95
2023-05-16T12:16:49.479Z,2.45
2023-05-16T12:19:16.986Z,1.90
2023-05-16T12:21:43.827Z,2.10
2023-05-16T12:24:12.986Z,2.20
2023-05-16T12:26:41.420Z,2.70
2023-05-16T12:29:08.447Z,2.63
2023-05-16T12:31:41.041Z,2.20
2023-05-16T12:34:19.150Z,2.55
2023-05-16T12:36:46.109Z,2.38
2023-05-16T12:39:14.296Z,2.65
2023-05-16T12:41:43.168Z,2.13
2023-05-16T12:44:18.077Z,2.05
2023-05-16T12:46:46.450Z,2.60
2023-05-16T12:49:13.883Z,2.45
2023-05-16T12:51:41.454Z,2.28
2023-05-16T12:54:11.927Z,2.60
2023-05-16T12:56:42.288Z,2.88
2023-05-16T12:59:09.127Z,2.78
2023-05-16T13:01:36.769Z,2.30
2023-05-16T13:04:05.218Z,2.60
2023-05-16T13:06:44.819Z,2.30
2023-05-16T13:09:16.540Z,2.40
2023-05-16T13:11:43.239Z,2.15
2023-05-16T13:14:09.934Z,2.30
2023-05-16T13:16:36.670Z,2.20
2023-05-16T13:19:03.776Z,2.83
2023-05-16T13:21:32.160Z,2.00
2023-05-16T13:23:59.495Z,2.03
2023-05-16T13:26:26.850Z,1.70
2023-05-16T13:28:55.235Z,1.70
2023-05-16T13:31:25.380Z,2.03
2023-05-16T13:33:52.313Z,1.90
2023-05-16T13:36:19.082Z,1.75
2023-05-16T13:38:45.804Z,1.83
2023-05-16T13:41:12.477Z,1.95
2023-05-16T13:43:39.221Z,1.77
2023-05-16T13:46:06.223Z,2.55
2023-05-16T13:48:32.997Z,1.65
2023-05-16T13:50:59.697Z,1.98
2023-05-16T13:53:26.424Z,1.40
2023-05-16T13:55:53.069Z,1.80
2023-05-16T13:58:19.793Z,1.88
2023-05-16T14:00:47.915Z,1.70
2023-05-16T14:03:15.111Z,3.45
2023-05-16T14:05:42.054Z,3.85
2023-05-16T14:08:09.412Z,2.25
2023-05-16T14:10:36.265Z,1.70
2023-05-16T14:13:02.938Z,1.77
2023-05-16T14:15:30.249Z,2.05
2023-05-16T14:17:59.611Z,2.08
2023-05-16T14:20:26.877Z,2.00
2023-05-16T14:22:53.621Z,1.77
2023-05-16T14:25:20.840Z,1.77
2023-05-16T14:27:47.806Z,1.90
2023-05-16T14:30:14.500Z,1.83
2023-05-16T14:32:41.215Z,2.30
2023-05-16T14:35:09.634Z,2.20
2023-05-16T14:37:36.325Z,1.90
2023-05-16T14:40:03.100Z,1.98
2023-05-16T14:42:29.756Z,1.90
2023-05-16T14:44:56.465Z,2.20
2023-05-16T14:47:24.312Z,1.77
2023-05-16T14:49:53.085Z,2.00
2023-05-16T14:52:19.915Z,1.77
2023-05-16T14:54:46.730Z,1.63
2023-05-16T14:57:13.416Z,2.00
2023-05-16T14:59:40.106Z,1.88
2023-05-16T15:02:07.357Z,2.10
2023-05-16T15:04:34.143Z,1.85
2023-05-16T15:07:00.902Z,2.33
2023-05-16T15:09:27.555Z,2.78
2023-05-16T15:11:54.256Z,1.80
2023-05-16T15:14:20.949Z,3.08
2023-05-16T15:16:47.970Z,2.40
2023-05-16T15:19:14.792Z,2.95
2023-05-16T15:21:41.929Z,3.33
2023-05-16T15:24:08.922Z,3.08
2023-05-16T15:26:35.765Z,3.53
2023-05-16T15:29:02.682Z,2.80
2023-05-16T15:31:31.644Z,3.08
2023-05-16T15:33:58.567Z,3.05
2023-05-16T15:36:25.658Z,2.78
2023-05-16T15:38:53.184Z,3.55
2023-05-16T15:41:37.121Z,3.28
2023-05-16T15:44:07.811Z,3.88
2023-05-16T15:46:34.647Z,4.00
2023-05-16T15:49:01.533Z,3.63
2023-05-16T15:51:28.214Z,3.50
2023-05-16T15:53:54.901Z,3.50
2023-05-16T15:56:22.000Z,3.25
2023-05-16T15:58:48.761Z,3.10
2023-05-16T16:01:16.892Z,3.55
2023-05-16T16:03:43.970Z,3.35
2023-05-16T16:06:10.845Z,3.22
2023-05-16T16:08:37.762Z,2.78
2023-05-16T16:11:05.084Z,3.17
2023-05-16T16:13:32.330Z,3.13
2023-05-16T16:15:59.157Z,8.82
2023-05-16T16:18:26.058Z,5.10
2023-05-16T16:20:53.560Z,3.13
2023-05-16T16:23:20.343Z,3.00
2023-05-16T16:25:47.210Z,3.30
2023-05-16T16:28:13.938Z,2.95
2023-05-16T16:30:40.875Z,2.55
2023-05-16T16:33:07.752Z,2.70
2023-05-16T16:35:34.663Z,2.58
2023-05-16T16:38:06.832Z,2.63
2023-05-16T16:40:34.421Z,2.10
2023-05-16T16:43:01.702Z,2.00
2023-05-16T16:45:28.978Z,4.10
2023-05-16T16:47:56.120Z,2.88
2023-05-16T16:50:23.043Z,3.60
2023-05-16T16:52:49.706Z,11.40
2023-05-16T16:55:16.846Z,23.73
2023-05-16T16:57:43.755Z,7.18
2023-05-16T17:00:11.858Z,18.35
2023-05-16T17:02:38.714Z,2.85
2023-05-16T17:05:06.706Z,14.95
2023-05-16T17:07:33.604Z,39.42
2023-05-16T17:10:01.319Z,86.18
2023-05-16T17:12:29.044Z,33.70
2023-05-16T17:14:57.415Z,38.30
2023-05-16T17:17:26.359Z,10.13
2023-05-16T17:19:53.336Z,5.25
2023-05-16T17:22:21.630Z,14.63
2023-05-16T17:24:48.526Z,3.20
2023-05-16T17:27:15.330Z,2.88
2023-05-16T17:29:42.051Z,3.55
2023-05-16T17:32:08.748Z,4.68
2023-05-16T17:34:36.097Z,2.65
2023-05-16T17:37:04.266Z,3.22
2023-05-16T17:39:32.279Z,2.75
2023-05-16T17:41:59.633Z,3.85
2023-05-16T17:44:26.328Z,2.67
2023-05-16T17:46:53.905Z,3.42
2023-05-16T17:49:21.792Z,4.03
2023-05-16T17:51:50.449Z,4.68
2023-05-16T17:54:18.697Z,6.57
2023-05-16T17:56:49.606Z,4.45
2023-05-16T17:59:17.209Z,2.92
2023-05-16T18:01:43.940Z,3.65
2023-05-16T18:04:10.989Z,5.07
2023-05-16T18:06:38.550Z,6.22
2023-05-16T18:09:15.229Z,4.22
2023-05-16T18:11:42.825Z,3.25
2023-05-16T18:14:09.567Z,3.05
2023-05-16T18:16:36.310Z,2.78
2023-05-16T18:19:05.015Z,2.72
2023-05-16T18:21:32.458Z,2.55
2023-05-16T18:23:59.663Z,3.47
2023-05-16T18:26:28.769Z,10.98
2023-05-16T18:28:56.152Z,20.45
2023-05-16T18:31:23.044Z,17.33
2023-05-16T18:33:50.105Z,14.82
2023-05-16T18:36:16.900Z,7.50
2023-05-16T18:38:43.662Z,8.50
2023-05-16T18:41:10.370Z,7.20
2023-05-16T18:43:37.236Z,5.88
2023-05-16T18:46:04.475Z,7.50
2023-05-16T18:48:32.477Z,16.38
2023-05-16T18:51:00.880Z,19.58
2023-05-16T18:53:27.655Z,28.50
2023-05-16T18:55:54.525Z,12.60
2023-05-16T18:58:21.476Z,15.23
2023-05-16T19:00:55.582Z,7.75
2023-05-16T19:03:23.088Z,7.80
2023-05-16T19:05:51.170Z,9.68
2023-05-16T19:08:17.978Z,8.05
2023-05-16T19:10:45.655Z,11.57
2023-05-16T19:13:12.430Z,23.13
2023-05-16T19:15:39.609Z,6.35
2023-05-16T19:18:06.735Z,5.20
2023-05-16T19:20:35.458Z,11.48
2023-05-16T19:23:03.498Z,4.07
2023-05-16T19:25:30.922Z,4.13
2023-05-16T19:27:58.174Z,4.75
2023-05-16T19:30:26.129Z,10.65
2023-05-16T19:32:53.412Z,7.03
2023-05-16T19:35:20.943Z,7.32
2023-05-16T19:37:48.570Z,5.72
2023-05-16T19:40:17.494Z,5.82
2023-05-16T19:42:44.952Z,6.85
2023-05-16T19:45:12.782Z,5.38
2023-05-16T19:47:40.261Z,3.75
2023-05-16T19:50:08.674Z,4.45
2023-05-16T19:52:36.936Z,3.97
2023-05-16T19:55:07.414Z,5.30
2023-05-16T19:57:34.876Z,4.57
2023-05-16T20:00:02.701Z,5.85
2023-05-16T20:02:29.498Z,5.82
2023-05-16T20:04:56.971Z,5.50
2023-05-16T20:07:27.655Z,11.80
2023-05-16T20:09:55.402Z,8.45
2023-05-16T20:12:22.988Z,6.18
2023-05-16T20:14:50.118Z,6.43
2023-05-16T20:17:17.383Z,6.00
2023-05-16T20:19:44.836Z,5.35
2023-05-16T20:22:12.405Z,5.18
2023-05-16T20:24:39.502Z,6.00
2023-05-16T20:27:06.789Z,5.38
2023-05-16T20:29:34.323Z,5.45
2023-05-16T20:32:03.471Z,5.50
2023-05-16T20:34:34.117Z,5.30
2023-05-16T20:37:01.307Z,5.50
2023-05-16T20:39:29.063Z,5.18
2023-05-16T20:41:56.361Z,5.25
2023-05-16T20:44:23.114Z,6.32
2023-05-16T20:46:50.487Z,5.40
2023-05-16T20:49:17.750Z,6.25
2023-05-16T20:51:45.054Z,5.53
2023-05-16T20:54:13.359Z,5.20
2023-05-16T20:56:40.602Z,5.53
2023-05-16T20:59:08.095Z,5.30
2023-05-16T21:01:35.530Z,5.72
2023-05-16T21:04:02.814Z,6.05
2023-05-16T21:06:30.060Z,5.80
2023-05-16T21:08:57.538Z,5.70
2023-05-16T21:11:24.961Z,6.10
2023-05-16T21:13:52.256Z,6.60
2023-05-16T21:16:19.582Z,6.00
2023-05-16T21:18:47.304Z,6.50
2023-05-16T21:21:14.005Z,7.05
2023-05-16T21:23:41.280Z,6.10
2023-05-16T21:26:08.876Z,6.43
2023-05-16T21:28:42.646Z,6.00
2023-05-16T21:31:18.829Z,6.22
2023-05-16T21:33:46.301Z,7.50
2023-05-16T21:36:13.521Z,7.35
2023-05-16T21:38:40.680Z,7.13
2023-05-16T21:41:08.324Z,7.18
2023-05-16T21:43:37.055Z,7.18
2023-05-16T21:46:04.053Z,7.70
2023-05-16T21:48:31.862Z,7.60
2023-05-16T21:50:58.642Z,7.20
2023-05-16T21:53:26.326Z,7.53
2023-05-16T21:55:53.655Z,7.55
2023-05-16T21:58:21.198Z,7.65
2023-05-16T22:00:48.504Z,8.43
2023-05-16T22:03:19.354Z,7.65
2023-05-16T22:05:47.462Z,6.70
2023-05-16T22:08:14.268Z,7.18
2023-05-16T22:10:41.711Z,7.28
2023-05-16T22:13:09.266Z,6.97
2023-05-16T22:15:36.818Z,7.85
2023-05-16T22:18:04.794Z,7.10
2023-05-16T22:20:32.719Z,7.47
2023-05-16T22:23:03.915Z,7.20
2023-05-16T22:25:31.536Z,6.63
2023-05-16T22:27:59.089Z,7.40
2023-05-16T22:30:26.438Z,7.63
2023-05-16T22:32:54.996Z,7.60
2023-05-16T22:35:23.712Z,8.13
2023-05-16T22:37:51.259Z,7.70
2023-05-16T22:40:18.522Z,8.27
2023-05-16T22:42:45.927Z,7.45
2023-05-16T22:45:12.789Z,7.30
2023-05-16T22:47:40.514Z,7.18
2023-05-16T22:50:08.093Z,7.47
2023-05-16T22:52:35.040Z,7.20
2023-05-16T22:55:02.779Z,6.35
2023-05-16T22:57:30.049Z,6.90
2023-05-16T22:59:57.400Z,5.85
2023-05-16T23:02:24.190Z,6.35
2023-05-16T23:04:52.290Z,7.38
2023-05-16T23:07:19.801Z,6.53
2023-05-16T23:09:47.009Z,7.53
2023-05-16T23:12:13.637Z,6.68
2023-05-16T23:14:40.936Z,5.88
2023-05-16T23:17:07.696Z,5.50
2023-05-16T23:19:35.224Z,5.82
2023-05-16T23:22:03.848Z,5.60
2023-05-16T23:24:31.146Z,5.78
2023-05-16T23:26:58.464Z,5.63
2023-05-16T23:29:25.263Z,5.47
2023-05-16T23:31:51.905Z,5.63
2023-05-16T23:34:18.606Z,5.38
2023-05-16T23:36:45.705Z,5.05
2023-05-16T23:39:12.936Z,4.78
2023-05-16T23:41:40.356Z,5.28
2023-05-16T23:44:07.810Z,5.05
2023-05-16T23:46:34.588Z,4.78
2023-05-16T23:49:02.023Z,5.00
2023-05-16T23:51:34.684Z,5.35
2023-05-16T23:54:09.225Z,4.72
2023-05-16T23:56:36.300Z,4.95
2023-05-16T23:59:03.591Z,4.80
